createdAt,value
2023-03-23T16:00:28.079Z,0.50
2023-03-23T16:05:29.708Z,0.95
2023-03-23T16:10:31.026Z,0.82
2023-03-23T16:15:32.558Z,3.33
2023-03-23T16:20:36.253Z,1.98
2023-03-23T16:25:40.212Z,0.50
2023-03-23T16:30:43.313Z,3.08
2023-03-23T16:35:45.030Z,0.70
2023-03-23T16:40:47.182Z,2.05
2023-03-23T16:45:49.255Z,1.55
2023-03-23T16:50:51.945Z,0.57
2023-03-23T16:55:53.414Z,0.88
2023-03-23T17:01:01.033Z,0.57
2023-03-23T17:06:02.586Z,0.77
2023-03-23T17:11:04.080Z,3.22
2023-03-23T17:16:06.116Z,0.65
2023-03-23T17:21:07.621Z,1.98
2023-03-23T17:26:08.958Z,1.20
2023-03-23T17:31:10.520Z,1.08
2023-03-23T17:36:11.949Z,2.67
2023-03-23T17:41:13.350Z,1.90
2023-03-23T17:46:15.331Z,1.10
2023-03-23T17:51:16.669Z,1.83
2023-03-23T17:56:18.110Z,0.95
2023-03-23T18:01:19.531Z,1.27
2023-03-23T18:06:25.859Z,1.67
2023-03-23T18:11:31.576Z,2.13
2023-03-23T18:16:37.662Z,0.75
2023-03-23T18:22:04.467Z,2.15
2023-03-23T18:27:05.823Z,2.13
2023-03-23T18:32:08.089Z,2.40
2023-03-23T18:37:10.818Z,2.35
2023-03-23T18:42:12.147Z,1.30
2023-03-23T18:47:13.511Z,3.58
2023-03-23T18:52:14.858Z,1.10
2023-03-23T18:57:17.888Z,2.53
2023-03-23T19:02:20.376Z,2.72
2023-03-23T19:07:21.762Z,2.58
2023-03-23T19:12:38.060Z,2.30
2023-03-23T19:17:39.546Z,3.28
2023-03-23T19:22:41.191Z,2.60
2023-03-23T19:28:14.693Z,1.85
2023-03-23T19:33:04.711Z,1.70
2023-03-23T19:38:06.899Z,2.35
2023-03-23T19:43:08.418Z,1.38
2023-03-23T19:48:10.203Z,3.65
2023-03-23T19:53:14.026Z,1.17
2023-03-23T19:58:16.309Z,0.85
2023-03-23T20:03:18.350Z,1.23
2023-03-23T20:08:19.725Z,2.58
2023-03-23T20:13:21.066Z,3.08
2023-03-23T20:18:22.624Z,1.00
2023-03-23T20:23:25.185Z,1.52
2023-03-23T20:28:26.776Z,1.08
2023-03-23T20:33:30.352Z,2.60
2023-03-23T20:38:35.214Z,2.78
2023-03-23T20:43:37.663Z,4.07
2023-03-23T20:48:40.127Z,1.42
2023-03-23T20:53:41.619Z,1.35
2023-03-23T20:58:43.450Z,1.65
2023-03-23T21:03:45.494Z,2.03
2023-03-23T21:08:47.029Z,2.80
2023-03-23T21:13:49.182Z,1.33
2023-03-23T21:18:51.167Z,2.10
2023-03-23T21:23:53.820Z,0.93
2023-03-23T21:29:00.897Z,1.40
2023-03-23T21:39:05.967Z,0.95
2023-03-23T21:44:10.572Z,1.33
2023-03-23T21:49:19.065Z,0.98
2023-03-23T21:54:21.571Z,4.20
2023-03-23T21:59:23.826Z,2.80
2023-03-23T22:04:25.351Z,2.08
2023-03-23T22:09:26.689Z,2.10
2023-03-23T22:14:28.499Z,1.45
2023-03-23T22:19:29.853Z,1.45
2023-03-23T22:24:31.925Z,1.70
2023-03-23T22:29:34.943Z,2.20
2023-03-23T22:34:37.758Z,2.05
2023-03-23T22:39:39.305Z,2.80
2023-03-23T22:44:50.573Z,2.72
2023-03-23T22:49:53.096Z,2.60
2023-03-23T22:54:54.584Z,1.83
2023-03-23T22:59:56.789Z,5.05
2023-03-23T23:04:59.086Z,4.50
2023-03-23T23:10:00.619Z,3.35
2023-03-23T23:15:06.730Z,3.53
2023-03-23T23:20:12.841Z,5.38
2023-03-23T23:25:16.217Z,7.53
2023-03-23T23:30:18.643Z,3.50
2023-03-23T23:35:21.236Z,7.13
2023-03-23T23:40:22.953Z,5.68
2023-03-23T23:45:24.396Z,6.53
2023-03-23T23:50:26.434Z,5.90
2023-03-23T23:55:27.841Z,8.15
